Time;durP1;ratioP1;P1;durP2;ratioP2;P2;SDS_P1;SDS_P2;PMS_P1;PMS_P2;Temp;Humidity;BMP_temperature;BMP_pressure;BME280_temperature;BME280_humidity;BME280_pressure;Samples;Min_cycle;Max_cycle;Signal;HPM_P1;HPM_P2
2022/09/30 00:00:26;;;;;;;5.55;1.40;;;38.40;58.20;;;;;;5049650;28;20017;-62
2022/09/30 00:02:53;;;;;;;22.52;2.25;;;;;;;;;;5054731;28;20386;-64
2022/09/30 00:05:19;;;;;;;12.85;1.52;;;38.30;46.80;;;;;;5051112;28;20025;-64
2022/09/30 00:07:45;;;;;;;8.23;1.88;;;38.10;52.20;;;;;;5056881;28;20020;-63
2022/09/30 00:10:13;;;;;;;6.72;1.33;;;;;;;;;;5052438;28;20136;-62
2022/09/30 00:12:40;;;;;;;21.33;1.80;;;37.70;78.90;;;;;;5050105;28;20023;-64
2022/09/30 00:15:07;;;;;;;3.83;1.23;;;38.00;50.00;;;;;;5051029;28;20086;-64
2022/09/30 00:17:33;;;;;;;9.32;1.48;;;;;;;;;;5048702;28;20545;-63
2022/09/30 00:20:00;;;;;;;5.63;1.33;;;;;;;;;;5051628;28;20079;-64
2022/09/30 00:22:26;;;;;;;20.85;1.90;;;;;;;;;;5054523;28;20467;-62
2022/09/30 00:24:53;;;;;;;6.55;1.33;;;;;;;;;;5049116;28;20036;-63
2022/09/30 00:27:20;;;;;;;9.32;1.63;;;37.60;81.90;;;;;;5048857;28;20025;-62
2022/09/30 00:29:47;;;;;;;6.95;1.58;;;;;;;;;;5048785;28;20104;-62
2022/09/30 00:32:13;;;;;;;13.82;2.08;;;;;;;;;;5050710;28;20393;-62
2022/09/30 00:34:40;;;;;;;10.98;1.50;;;;;;;;;;5054353;28;20021;-62
2022/09/30 00:37:07;;;;;;;7.50;1.50;;;37.50;79.20;;;;;;5053297;28;20032;-62
2022/09/30 00:39:36;;;;;;;11.75;2.10;;;37.40;48.40;;;;;;5054858;28;20481;-62
2022/09/30 00:42:06;;;;;;;28.83;2.13;;;37.20;48.50;;;;;;5049066;28;20048;-61
2022/09/30 00:44:49;;;;;;;9.68;1.60;;;37.20;51.30;;;;;;5048907;28;20094;-62
2022/09/30 00:47:37;;;;;;;10.80;1.60;;;37.30;90.30;;;;;;5044694;28;20579;-61
2022/09/30 00:50:25;;;;;;;4.40;1.48;;;37.00;48.50;;;;;;5048665;28;20036;-62
2022/09/30 00:52:57;;;;;;;5.18;1.80;;;37.20;57.70;;;;;;5052237;28;20024;-63
2022/09/30 00:55:52;;;;;;;8.63;1.50;;;36.90;54.70;;;;;;5049540;28;20028;-62
2022/09/30 00:58:36;;;;;;;10.18;1.40;;;36.90;48.50;;;;;;5055003;28;20513;-63
2022/09/30 01:01:03;;;;;;;14.48;2.15;;;36.70;53.50;;;;;;5049836;28;20540;-63
2022/09/30 01:03:31;;;;;;;14.82;1.77;;;;;;;;;;5049601;28;20032;-63
2022/09/30 01:05:57;;;;;;;7.15;1.90;;;36.60;48.90;;;;;;5048273;28;20025;-62
2022/09/30 01:08:25;;;;;;;16.55;11.13;;;36.20;49.40;;;;;;5050442;28;20036;-61
2022/09/30 01:10:52;;;;;;;13.55;4.70;;;;;;;;;;5058886;28;20029;-62
2022/09/30 01:13:22;;;;;;;21.48;2.25;;;36.50;50.10;;;;;;5049246;28;20644;-62
2022/09/30 01:15:51;;;;;;;12.18;2.00;;;36.80;89.30;;;;;;5049242;28;20111;-62
2022/09/30 01:18:35;;;;;;;10.63;1.60;;;36.20;49.30;;;;;;5049197;28;20530;-61
2022/09/30 01:21:36;;;;;;;9.93;1.60;;;36.30;63.90;;;;;;5053359;28;20048;-63
2022/09/30 01:24:05;;;;;;;13.00;1.65;;;36.30;87.50;;;;;;5048861;28;20029;-63
2022/09/30 01:27:20;;;;;;;17.60;2.13;;;36.00;49.30;;;;;;5051474;28;20521;-62
2022/09/30 01:30:11;;;;;;;13.20;2.30;;;36.00;69.50;;;;;;5023415;28;20522;-62
2022/09/30 01:32:52;;;;;;;10.18;2.20;;;35.70;61.80;;;;;;5048964;28;20361;-63
2022/09/30 01:35:41;;;;;;;8.98;2.15;;;35.60;50.00;;;;;;5048697;28;20112;-64
2022/09/30 01:38:29;;;;;;;25.73;2.85;;;35.30;73.20;;;;;;5047266;28;20024;-63
2022/09/30 01:41:10;;;;;;;19.83;2.00;;;35.60;73.90;;;;;;5044612;28;20039;-63
2022/09/30 01:43:57;;;;;;;12.02;2.05;;;35.60;56.70;;;;;;5047236;28;20387;-62
2022/09/30 01:46:43;;;;;;;18.23;2.33;;;35.50;65.80;;;;;;5048165;28;20037;-61
2022/09/30 01:49:28;;;;;;;18.60;2.40;;;35.60;60.70;;;;;;5044159;28;20025;-63
2022/09/30 01:52:00;;;;;;;10.88;2.40;;;35.50;50.10;;;;;;5050501;28;20037;-63
2022/09/30 01:55:13;;;;;;;21.80;3.15;;;35.40;50.20;;;;;;5049702;28;20025;-62
2022/09/30 01:57:57;;;;;;;14.35;2.47;;;35.40;49.60;;;;;;5017658;28;20577;-61
2022/09/30 02:00:25;;;;;;;18.42;2.78;;;35.40;56.50;;;;;;5050305;28;20033;-61
2022/09/30 02:03:17;;;;;;;11.93;2.65;;;35.30;52.10;;;;;;5051505;28;20024;-62
2022/09/30 02:05:52;;;;;;;20.85;2.58;;;35.30;53.20;;;;;;5047452;28;20372;-64
2022/09/30 02:08:49;;;;;;;9.30;2.40;;;34.80;54.80;;;;;;5050147;28;20032;-62
2022/09/30 02:11:25;;;;;;;25.05;3.00;;;35.20;50.70;;;;;;5051710;28;20390;-61
2022/09/30 02:13:55;;;;;;;13.82;2.13;;;35.00;57.00;;;;;;5049101;28;20436;-63
2022/09/30 02:16:31;;;;;;;10.00;2.58;;;35.10;50.80;;;;;;5051531;28;20463;-66
2022/09/30 02:19:12;;;;;;;11.70;2.35;;;35.00;50.70;;;;;;5051609;28;20021;-63
2022/09/30 02:21:43;;;;;;;26.23;2.60;;;35.00;51.40;;;;;;5051572;28;20079;-64
2022/09/30 02:24:13;;;;;;;27.63;2.70;;;34.70;52.10;;;;;;5049960;28;20025;-62
2022/09/30 02:26:43;;;;;;;14.85;2.10;;;34.80;58.30;;;;;;5051646;28;20040;-63
2022/09/30 02:29:17;;;;;;;13.68;2.05;;;34.80;51.80;;;;;;5051715;28;20025;-64
2022/09/30 02:31:46;;;;;;;14.32;2.38;;;34.70;52.00;;;;;;5050757;28;20037;-59
2022/09/30 02:34:30;;;;;;;20.95;2.42;;;34.70;52.00;;;;;;5051058;28;20071;-61
2022/09/30 02:36:56;;;;;;;13.77;2.67;;;;;;;;;;5050964;28;20016;-63
2022/09/30 02:39:41;;;;;;;12.35;1.80;;;34.50;61.30;;;;;;5051935;28;20029;-63
2022/09/30 02:42:19;;;;;;;18.90;2.72;;;34.50;51.60;;;;;;5051775;28;20028;-63
2022/09/30 02:44:50;;;;;;;13.32;2.50;;;34.50;52.10;;;;;;5052503;28;20056;-64
2022/09/30 02:47:32;;;;;;;8.55;2.85;;;34.50;52.30;;;;;;5051161;28;20068;-63
2022/09/30 02:50:16;;;;;;;14.15;3.33;;;34.50;52.30;;;;;;5050993;28;20029;-61
2022/09/30 02:52:42;;;;;;;13.38;3.00;;;34.30;52.30;;;;;;5052602;28;20441;-60
2022/09/30 02:55:35;;;;;;;12.02;2.90;;;34.20;52.50;;;;;;5051604;28;20043;-64
2022/09/30 02:58:01;;;;;;;19.67;2.83;;;34.20;52.30;;;;;;5050769;28;20424;-60
2022/09/30 03:00:28;;;;;;;15.10;2.65;;;33.90;87.90;;;;;;5064570;28;20036;-63
2022/09/30 03:03:04;;;;;;;13.80;2.40;;;34.10;79.80;;;;;;5050174;28;20098;-61
2022/09/30 03:05:30;;;;;;;16.48;2.75;;;34.10;58.50;;;;;;5050277;28;20036;-62
2022/09/30 03:07:57;;;;;;;13.65;2.60;;;34.00;52.60;;;;;;5057132;28;20017;-65
2022/09/30 03:10:24;;;;;;;9.82;2.42;;;34.10;53.30;;;;;;5049897;28;20029;-64
2022/09/30 03:13:14;;;;;;;5.57;1.88;;;34.00;53.70;;;;;;5052010;28;20025;-61
2022/09/30 03:16:08;;;;;;;10.60;2.35;;;34.00;53.90;;;;;;5055052;28;20021;-66
2022/09/30 03:19:02;;;;;;;53.83;4.07;;;33.90;54.00;;;;;;5049204;28;20413;-72
2022/09/30 03:21:48;;;;;;;16.25;2.50;;;34.60;52.90;;;;;;5049998;28;20036;-72
2022/09/30 03:24:45;;;;;;;11.50;2.45;;;35.10;53.00;;;;;;5049998;28;20021;-73
2022/09/30 03:27:36;;;;;;;16.23;2.90;;;35.50;52.10;;;;;;5048815;28;20058;-72
2022/09/30 03:30:10;;;;;;;31.05;3.05;;;35.60;51.80;;;;;;5061594;28;20041;-72
2022/09/30 03:32:52;;;;;;;22.75;2.60;;;35.50;51.60;;;;;;5050685;28;20025;-72
2022/09/30 03:35:27;;;;;;;16.05;2.47;;;35.40;51.80;;;;;;5053199;28;20090;-73
2022/09/30 03:38:04;;;;;;;30.08;3.10;;;35.50;51.50;;;;;;5049460;28;20035;-74
2022/09/30 03:40:48;;;;;;;22.23;2.90;;;35.50;60.20;;;;;;5058790;28;20367;-73
2022/09/30 03:43:24;;;;;;;19.88;2.38;;;35.50;50.80;;;;;;5055459;28;20039;-74
2022/09/30 03:46:05;;;;;;;15.90;2.78;;;35.40;76.60;;;;;;5055794;28;20029;-73
2022/09/30 03:48:33;;;;;;;21.35;4.28;;;35.50;51.60;;;;;;5062498;28;20490;-74
2022/09/30 03:51:00;;;;;;;17.02;5.22;;;35.60;51.70;;;;;;5048887;28;20045;-73
2022/09/30 03:53:27;;;;;;;17.98;3.13;;;35.50;68.10;;;;;;5053447;28;20094;-73
2022/09/30 03:55:53;;;;;;;6.90;2.15;;;35.30;65.50;;;;;;5059631;28;20037;-74
2022/09/30 03:58:24;;;;;;;11.77;2.00;;;35.30;52.60;;;;;;5055707;28;20539;-73
2022/09/30 04:00:53;;;;;;;16.33;1.50;;;35.30;52.90;;;;;;5061716;28;20406;-72
2022/09/30 04:03:21;;;;;;;14.15;2.08;;;35.10;64.70;;;;;;5060580;28;20540;-67
2022/09/30 04:05:48;;;;;;;11.15;2.33;;;35.30;53.10;;;;;;5053053;28;20064;-69
2022/09/30 04:08:15;;;;;;;11.07;2.10;;;34.70;53.70;;;;;;5048106;28;20027;-67
2022/09/30 04:10:43;;;;;;;17.55;2.45;;;34.40;54.60;;;;;;5046914;28;20516;-66
2022/09/30 04:13:10;;;;;;;9.88;2.20;;;34.10;55.00;;;;;;5047518;28;20036;-68
2022/09/30 04:15:37;;;;;;;19.67;3.08;;;34.00;55.30;;;;;;5047127;28;20023;-67
2022/09/30 04:18:04;;;;;;;15.75;2.72;;;33.90;55.40;;;;;;5055363;28;20083;-67
2022/09/30 04:20:31;;;;;;;16.17;3.10;;;33.90;55.50;;;;;;5047785;28;20025;-66
2022/09/30 04:22:59;;;;;;;16.98;3.17;;;33.80;55.40;;;;;;5049334;28;20025;-66
2022/09/30 04:25:27;;;;;;;15.40;3.55;;;33.80;54.90;;;;;;5048963;28;20108;-66
2022/09/30 04:27:54;;;;;;;16.92;3.78;;;33.70;55.00;;;;;;5049396;28;20029;-64
2022/09/30 04:30:20;;;;;;;19.40;3.35;;;33.60;55.20;;;;;;5048937;28;20075;-64
2022/09/30 04:32:47;;;;;;;11.90;2.60;;;33.60;55.50;;;;;;5050946;28;20343;-64
2022/09/30 04:35:14;;;;;;;12.32;2.15;;;33.50;67.00;;;;;;5050904;28;20075;-66
2022/09/30 04:37:46;;;;;;;15.57;3.03;;;33.50;55.90;;;;;;5059245;28;20021;-67
2022/09/30 04:40:15;;;;;;;13.68;3.05;;;33.50;56.20;;;;;;5049170;28;20438;-63
2022/09/30 04:42:41;;;;;;;15.65;2.95;;;33.40;56.70;;;;;;5050422;28;20040;-65
2022/09/30 04:45:10;;;;;;;14.98;2.45;;;33.40;56.90;;;;;;5049184;28;20055;-64
2022/09/30 04:47:36;;;;;;;7.88;2.00;;;33.30;57.00;;;;;;5049410;28;20036;-65
2022/09/30 04:50:04;;;;;;;15.95;2.35;;;33.30;56.80;;;;;;5047755;28;20032;-64
2022/09/30 04:52:32;;;;;;;15.32;2.30;;;33.20;56.80;;;;;;5047187;28;20160;-67
2022/09/30 04:54:59;;;;;;;11.02;2.28;;;33.20;56.70;;;;;;5048645;28;20032;-64
2022/09/30 04:57:26;;;;;;;12.10;2.60;;;33.20;56.60;;;;;;5049225;28;20482;-66
2022/09/30 04:59:52;;;;;;;12.40;2.78;;;33.20;56.20;;;;;;5049037;28;20479;-67
2022/09/30 05:02:19;;;;;;;14.52;3.83;;;33.20;56.10;;;;;;5049677;28;20040;-64
2022/09/30 05:04:45;;;;;;;18.70;4.18;;;33.10;56.10;;;;;;5049239;28;20056;-66
2022/09/30 05:07:11;;;;;;;14.25;3.63;;;33.10;56.40;;;;;;5049062;28;20032;-66
2022/09/30 05:09:38;;;;;;;15.45;3.90;;;33.10;56.00;;;;;;5049759;28;20079;-66
2022/09/30 05:12:04;;;;;;;21.98;4.00;;;33.10;55.80;;;;;;5048606;28;20021;-66
2022/09/30 05:14:32;;;;;;;17.38;4.35;;;33.00;55.80;;;;;;5048663;28;20100;-65
2022/09/30 05:16:58;;;;;;;25.50;4.32;;;33.10;55.90;;;;;;5048476;28;20083;-66
2022/09/30 05:19:24;;;;;;;22.20;4.68;;;33.00;55.90;;;;;;5048959;28;20060;-67
2022/09/30 05:21:51;;;;;;;20.05;5.63;;;33.00;56.20;;;;;;5048216;28;20029;-65
2022/09/30 05:24:18;;;;;;;31.73;7.00;;;33.00;56.60;;;;;;5047580;28;20037;-63
2022/09/30 05:26:44;;;;;;;18.50;6.15;;;32.90;57.00;;;;;;5047216;28;20028;-66
2022/09/30 05:29:10;;;;;;;27.70;7.15;;;32.90;56.70;;;;;;5047361;28;20505;-65
2022/09/30 05:31:37;;;;;;;25.05;6.90;;;32.90;56.60;;;;;;5049604;28;20128;-65
2022/09/30 05:34:03;;;;;;;33.50;7.18;;;32.90;56.80;;;;;;5049792;28;20026;-65
2022/09/30 05:36:30;;;;;;;21.15;6.38;;;32.80;56.80;;;;;;5051954;28;20025;-65
2022/09/30 05:38:56;;;;;;;30.65;7.60;;;32.80;57.20;;;;;;5052647;28;20100;-65
2022/09/30 05:41:23;;;;;;;20.58;6.90;;;32.90;57.80;;;;;;5051453;28;20831;-64
2022/09/30 05:43:49;;;;;;;28.50;6.78;;;32.70;57.10;;;;;;5051290;28;20087;-66
2022/09/30 05:46:17;;;;;;;23.77;7.43;;;32.80;57.20;;;;;;5051932;28;20056;-63
2022/09/30 05:48:44;;;;;;;23.77;6.88;;;32.70;57.30;;;;;;5050504;28;20025;-62
2022/09/30 05:51:11;;;;;;;23.33;6.60;;;32.70;57.50;;;;;;5048954;28;20061;-63
2022/09/30 05:53:38;;;;;;;18.38;6.40;;;32.70;57.60;;;;;;5050019;28;20116;-66
2022/09/30 05:56:06;;;;;;;16.05;6.28;;;32.60;57.70;;;;;;5054033;28;20021;-65
2022/09/30 05:58:32;;;;;;;21.10;7.47;;;32.60;57.70;;;;;;5054138;28;20012;-66
2022/09/30 06:01:06;;;;;;;26.60;6.10;;;32.60;57.70;;;;;;5053238;28;20111;-66
2022/09/30 06:03:32;;;;;;;19.95;6.57;;;32.60;57.80;;;;;;5054007;28;20025;-64
2022/09/30 06:05:58;;;;;;;23.00;5.38;;;32.50;58.20;;;;;;5058605;28;20111;-67
2022/09/30 06:08:25;;;;;;;17.60;3.50;;;32.50;57.70;;;;;;5054723;28;20159;-66
2022/09/30 06:10:52;;;;;;;17.20;3.13;;;32.50;57.20;;;;;;5059297;28;20031;-66
2022/09/30 06:13:20;;;;;;;20.05;3.30;;;32.50;57.40;;;;;;5051265;28;20030;-65
2022/09/30 06:16:07;;;;;;;16.77;3.25;;;32.50;57.30;;;;;;5057260;28;20100;-64
2022/09/30 06:18:34;;;;;;;17.85;4.57;;;32.50;58.30;;;;;;5058233;28;20107;-64
2022/09/30 06:21:03;;;;;;;20.63;3.90;;;32.40;57.30;;;;;;5056067;28;20021;-63
2022/09/30 06:23:30;;;;;;;12.57;3.80;;;32.40;57.20;;;;;;5057855;28;20078;-64
2022/09/30 06:25:57;;;;;;;19.40;4.40;;;32.30;57.10;;;;;;5052913;28;20028;-66
2022/09/30 06:28:26;;;;;;;15.05;4.93;;;32.30;57.00;;;;;;5059614;28;20075;-64
2022/09/30 06:30:52;;;;;;;17.67;4.82;;;32.30;57.20;;;;;;5053392;28;20446;-64
2022/09/30 06:33:20;;;;;;;11.32;4.43;;;32.30;57.20;;;;;;5052496;28;20031;-64
2022/09/30 06:35:46;;;;;;;26.17;5.50;;;32.30;57.40;;;;;;5055706;28;21821;-63
2022/09/30 06:38:14;;;;;;;25.05;7.88;;;32.20;57.90;;;;;;5056836;28;20017;-63
2022/09/30 06:40:48;;;;;;;19.23;5.97;;;32.20;58.20;;;;;;5059471;28;20028;-65
2022/09/30 06:43:16;;;;;;;15.90;4.70;;;32.10;58.70;;;;;;5049603;28;20530;-67
2022/09/30 06:45:45;;;;;;;14.32;3.40;;;32.10;59.60;;;;;;5051310;28;20044;-65
2022/09/30 06:48:11;;;;;;;12.52;2.50;;;32.10;61.20;;;;;;5058535;28;20397;-64
2022/09/30 06:50:38;;;;;;;10.85;2.30;;;32.10;63.50;;;;;;5049076;28;20478;-64
2022/09/30 06:53:06;;;;;;;11.20;2.60;;;32.00;65.40;;;;;;5052596;28;20434;-63
2022/09/30 06:55:35;;;;;;;8.73;2.63;;;32.00;66.80;;;;;;5049188;28;20033;-63
2022/09/30 06:58:01;;;;;;;10.75;2.53;;;31.90;83.40;;;;;;5049234;28;20065;-60
2022/09/30 07:00:28;;;;;;;14.35;3.25;;;31.90;85.40;;;;;;5052662;28;20028;-64
2022/09/30 07:02:57;;;;;;;13.82;2.75;;;31.90;69.40;;;;;;5054056;28;20101;-64
2022/09/30 07:05:25;;;;;;;11.40;3.55;;;31.80;70.10;;;;;;5049459;28;20104;-64
2022/09/30 07:07:52;;;;;;;12.73;3.58;;;31.70;71.40;;;;;;5052092;28;20669;-64
2022/09/30 07:10:19;;;;;;;16.98;3.80;;;31.70;73.30;;;;;;5053242;28;20120;-61
2022/09/30 07:12:53;;;;;;;15.43;3.92;;;31.60;74.30;;;;;;5049493;28;20025;-63
2022/09/30 07:15:21;;;;;;;14.82;3.63;;;31.60;75.00;;;;;;5050605;28;20025;-63
2022/09/30 07:17:57;;;;;;;11.13;4.22;;;31.40;75.90;;;;;;5052467;28;20674;-64
2022/09/30 07:20:23;;;;;;;10.82;3.70;;;31.40;76.70;;;;;;5051184;28;20127;-64
2022/09/30 07:22:50;;;;;;;12.45;4.07;;;31.40;77.10;;;;;;5048125;28;20116;-63
2022/09/30 07:25:16;;;;;;;11.30;4.43;;;31.30;77.90;;;;;;5051501;28;20029;-64
2022/09/30 07:27:43;;;;;;;13.93;4.43;;;31.30;78.40;;;;;;5054464;28;20059;-65
2022/09/30 07:30:10;;;;;;;14.05;5.25;;;31.30;78.80;;;;;;5057201;28;20037;-65
2022/09/30 07:32:37;;;;;;;14.77;4.68;;;31.20;79.60;;;;;;5058392;28;20021;-65
2022/09/30 07:35:05;;;;;;;18.33;4.97;;;31.10;80.30;;;;;;5051441;28;21362;-63
2022/09/30 07:37:34;;;;;;;24.30;5.30;;;31.10;80.90;;;;;;5050343;28;20033;-65
2022/09/30 07:40:04;;;;;;;18.75;5.45;;;31.00;81.70;;;;;;5050961;28;20025;-65
2022/09/30 07:42:31;;;;;;;16.52;6.00;;;31.00;82.20;;;;;;5051422;28;20031;-64
2022/09/30 07:44:58;;;;;;;23.70;7.03;;;31.00;83.70;;;;;;5050692;28;20032;-64
2022/09/30 07:47:24;;;;;;;20.42;7.80;;;30.80;83.60;;;;;;5049670;28;20830;-64
2022/09/30 07:49:51;;;;;;;18.95;8.48;;;30.80;84.10;;;;;;5054103;28;20037;-63
2022/09/30 07:52:17;;;;;;;21.55;6.97;;;30.80;84.30;;;;;;5058602;28;20036;-64
2022/09/30 07:54:44;;;;;;;16.15;5.78;;;30.70;84.40;;;;;;5049841;28;20155;-65
2022/09/30 07:57:10;;;;;;;12.48;4.95;;;30.70;84.90;;;;;;5052060;28;20492;-63
2022/09/30 07:59:40;;;;;;;11.52;3.85;;;30.60;85.50;;;;;;5054250;28;20021;-66
2022/09/30 08:02:10;;;;;;;11.23;3.30;;;30.60;86.10;;;;;;5061506;28;20028;-64
2022/09/30 08:04:36;;;;;;;17.77;3.65;;;30.60;87.00;;;;;;5050445;28;20032;-66
2022/09/30 08:07:04;;;;;;;14.90;3.50;;;30.60;87.70;;;;;;5048847;28;20027;-66
2022/09/30 08:09:30;;;;;;;13.65;4.22;;;30.60;88.50;;;;;;5049379;28;20027;-64
2022/09/30 08:11:57;;;;;;;12.35;4.18;;;30.50;89.20;;;;;;5050333;28;20120;-62
2022/09/30 08:14:26;;;;;;;18.42;5.60;;;30.50;90.10;;;;;;5049114;28;20026;-63
2022/09/30 08:16:55;;;;;;;16.48;6.30;;;30.50;90.40;;;;;;5049249;28;20032;-63
2022/09/30 08:19:23;;;;;;;19.40;7.25;;;30.50;90.70;;;;;;5047187;28;20474;-65
2022/09/30 08:21:54;;;;;;;14.07;7.43;;;30.40;90.90;;;;;;5049402;28;20052;-62
2022/09/30 08:24:21;;;;;;;21.60;8.02;;;30.20;95.00;;;;;;5048961;28;20049;-64
2022/09/30 08:26:47;;;;;;;20.35;8.30;;;30.20;99.90;;;;;;5049374;28;20036;-62
2022/09/30 08:29:14;;;;;;;20.33;7.53;;;;;;;;;;5054653;28;20039;-64
2022/09/30 08:31:41;;;;;;;20.52;6.30;;;30.30;99.90;;;;;;5049172;28;20037;-63
2022/09/30 08:34:07;;;;;;;21.73;6.93;;;30.30;92.40;;;;;;5048823;28;20099;-65
2022/09/30 08:36:33;;;;;;;18.20;5.93;;;30.20;99.90;;;;;;5049570;28;20478;-65
2022/09/30 08:39:00;;;;;;;19.02;7.57;;;30.20;92.90;;;;;;5048849;28;20025;-62
2022/09/30 08:41:43;;;;;;;23.30;7.97;;;30.10;99.90;;;;;;5051591;28;20099;-63
2022/09/30 08:44:21;;;;;;;24.88;9.18;;;30.20;96.60;;;;;;5048784;28;20033;-64
2022/09/30 08:47:04;;;;;;;36.55;9.00;;;30.30;98.70;;;;;;5049716;28;20048;-65
2022/09/30 08:49:36;;;;;;;17.42;8.30;;;30.20;99.90;;;;;;5049346;28;20033;-65
2022/09/30 08:52:08;;;;;;;22.75;7.88;;;30.10;94.40;;;;;;5049004;28;20424;-63
2022/09/30 08:54:35;;;;;;;22.35;8.73;;;28.90;94.30;;;;;;5047958;28;20508;-66
2022/09/30 08:57:04;;;;;;;19.58;7.18;;;30.00;95.00;;;;;;5050942;28;20039;-65
2022/09/30 08:59:36;;;;;;;21.58;7.53;;;29.70;99.90;;;;;;5050500;28;20028;-64
2022/09/30 09:02:29;;;;;;;22.38;8.18;;;30.00;99.90;;;;;;5048547;28;20111;-66
2022/09/30 09:05:04;;;;;;;22.10;7.97;;;30.00;99.90;;;;;;5054142;28;20028;-65
2022/09/30 09:07:31;;;;;;;15.00;7.40;;;;;;;;;;5047762;28;20508;-62
2022/09/30 09:10:21;;;;;;;18.40;7.32;;;29.50;99.90;;;;;;5047368;28;20028;-64
2022/09/30 09:13:05;;;;;;;15.15;5.57;;;29.90;97.40;;;;;;5047475;28;20025;-64
2022/09/30 09:15:45;;;;;;;14.27;4.55;;;29.90;99.90;;;;;;5048593;28;20021;-64
2022/09/30 09:18:32;;;;;;;13.60;3.65;;;29.40;99.90;;;;;;5047704;28;20017;-66
2022/09/30 09:21:08;;;;;;;10.13;3.72;;;29.90;99.20;;;;;;5047724;28;20552;-63
2022/09/30 09:23:35;;;;;;;15.83;3.57;;;29.90;99.90;;;;;;5047940;28;20095;-65
2022/09/30 09:26:02;;;;;;;12.60;4.70;;;29.90;99.90;;;;;;5047949;28;20021;-63
2022/09/30 09:28:47;;;;;;;27.90;11.50;;;29.90;99.90;;;;;;5047805;28;20497;-66
2022/09/30 09:31:18;;;;;;;37.90;18.58;;;29.30;99.90;;;;;;5048908;28;20059;-65
2022/09/30 09:33:46;;;;;;;33.65;18.30;;;29.60;99.90;;;;;;5049845;28;20014;-63
2022/09/30 09:36:12;;;;;;;37.00;16.27;;;;;;;;;;5051050;28;20025;-64
2022/09/30 09:38:57;;;;;;;28.92;12.65;;;30.00;99.90;;;;;;5059136;28;20023;-63
2022/09/30 09:41:41;;;;;;;29.45;10.23;;;30.40;99.90;;;;;;5053630;28;20424;-62
2022/09/30 09:44:33;;;;;;;17.13;7.38;;;30.50;99.90;;;;;;5057806;28;20466;-62
2022/09/30 09:47:18;;;;;;;15.00;5.75;;;30.40;99.90;;;;;;5054549;28;20040;-62
2022/09/30 09:50:02;;;;;;;12.32;4.68;;;30.60;99.90;;;;;;5056587;28;20029;-63
2022/09/30 09:52:55;;;;;;;16.77;4.65;;;30.60;99.90;;;;;;5054018;28;20036;-63
2022/09/30 09:55:22;;;;;;;7.85;3.80;;;30.50;99.90;;;;;;5055501;28;20021;-62
2022/09/30 09:58:05;;;;;;;12.55;4.93;;;30.50;99.90;;;;;;5054300;28;20025;-63
2022/09/30 10:03:19;;;;;;;13.50;3.90;;;30.40;99.90;;;;;;5055051;28;20071;-63
2022/09/30 10:06:03;;;;;;;9.25;4.05;;;30.40;99.90;;;;;;5052312;28;20030;-62
2022/09/30 10:08:34;;;;;;;6.78;3.05;;;30.50;99.90;;;;;;5059180;28;20485;-63
2022/09/30 10:11:04;;;;;;;9.52;3.10;;;30.50;99.90;;;;;;5055943;28;20496;-61
2022/09/30 10:13:45;;;;;;;10.88;3.90;;;30.50;99.90;;;;;;5060992;28;20099;-63
2022/09/30 10:16:34;;;;;;;14.25;2.72;;;30.50;99.90;;;;;;5055435;28;20496;-64
2022/09/30 10:19:17;;;;;;;7.63;2.80;;;30.50;99.90;;;;;;5057355;28;20491;-61
2022/09/30 10:21:44;;;;;;;17.42;2.97;;;30.50;99.90;;;;;;5056621;28;20114;-62
2022/09/30 10:24:30;;;;;;;9.90;3.10;;;30.40;99.90;;;;;;5054664;28;20377;-62
2022/09/30 10:26:57;;;;;;;10.63;2.50;;;30.30;99.90;;;;;;5061095;28;20382;-63
2022/09/30 10:29:34;;;;;;;7.95;2.28;;;30.20;99.90;;;;;;5057812;28;20426;-62
2022/09/30 10:32:05;;;;;;;12.70;3.40;;;30.30;99.90;;;;;;5059409;28;20122;-65
2022/09/30 10:34:42;;;;;;;9.07;2.60;;;30.20;99.90;;;;;;5059885;28;20138;-64
2022/09/30 10:37:14;;;;;;;9.68;3.33;;;30.20;99.90;;;;;;5052794;28;20020;-63
2022/09/30 10:39:43;;;;;;;10.55;3.72;;;30.10;99.90;;;;;;5057843;28;20052;-64
2022/09/30 10:42:23;;;;;;;11.88;3.50;;;30.20;99.90;;;;;;5053482;28;20044;-63
2022/09/30 10:44:57;;;;;;;9.10;3.83;;;30.10;99.90;;;;;;5061777;28;20053;-63
2022/09/30 10:47:25;;;;;;;7.82;4.15;;;29.90;99.90;;;;;;5061636;28;20022;-63
2022/09/30 10:50:07;;;;;;;9.52;3.40;;;30.00;99.90;;;;;;5057147;28;20025;-63
2022/09/30 10:52:59;;;;;;;10.60;4.07;;;30.00;99.90;;;;;;5059514;28;20023;-64
2022/09/30 10:55:28;;;;;;;12.80;3.35;;;30.00;99.90;;;;;;5061249;28;20112;-64
2022/09/30 10:57:56;;;;;;;8.77;3.25;;;29.90;99.90;;;;;;5055326;28;20024;-62
2022/09/30 11:00:26;;;;;;;8.05;2.88;;;29.80;99.90;;;;;;5059522;28;20116;-63
2022/09/30 11:03:19;;;;;;;8.93;3.13;;;29.80;99.90;;;;;;5059796;28;20484;-63
2022/09/30 11:05:49;;;;;;;8.32;3.13;;;29.90;99.90;;;;;;5055117;28;20059;-63
2022/09/30 11:08:40;;;;;;;11.55;3.40;;;29.80;99.90;;;;;;5059740;28;20033;-62
2022/09/30 11:11:19;;;;;;;9.98;3.50;;;29.70;99.90;;;;;;5058417;28;20029;-62
2022/09/30 11:13:56;;;;;;;6.93;2.58;;;29.20;99.90;;;;;;5059323;28;20028;-64
2022/09/30 11:16:51;;;;;;;8.15;2.97;;;29.80;99.90;;;;;;5055784;28;20367;-62
2022/09/30 11:19:34;;;;;;;7.05;2.70;;;29.50;99.90;;;;;;5057697;28;20382;-63
2022/09/30 11:22:30;;;;;;;7.10;2.35;;;29.40;99.90;;;;;;5062406;28;20020;-63
2022/09/30 11:24:56;;;;;;;7.90;2.67;;;29.50;99.90;;;;;;5061382;28;20039;-63
2022/09/30 11:27:55;;;;;;;7.32;2.30;;;29.30;99.90;;;;;;5055646;28;20378;-62
2022/09/30 11:30:21;;;;;;;10.13;2.65;;;29.00;99.90;;;;;;5055626;28;20492;-65
2022/09/30 11:33:12;;;;;;;10.88;2.47;;;29.00;99.90;;;;;;5057940;28;20037;-63
2022/09/30 11:36:01;;;;;;;5.70;2.40;;;29.20;99.90;;;;;;5060790;28;20020;-65
2022/09/30 11:38:45;;;;;;;6.43;2.58;;;29.00;99.90;;;;;;5054692;28;21595;-64
2022/09/30 11:41:42;;;;;;;10.02;2.50;;;29.20;99.90;;;;;;5051331;28;20040;-63
2022/09/30 11:44:40;;;;;;;12.23;2.92;;;29.20;99.90;;;;;;5056245;28;20074;-64
2022/09/30 11:47:26;;;;;;;8.32;2.67;;;29.30;99.90;;;;;;5057952;28;20056;-63
2022/09/30 11:50:08;;;;;;;9.27;2.70;;;29.30;99.90;;;;;;5060332;28;20032;-64
2022/09/30 11:52:49;;;;;;;9.23;3.53;;;29.10;99.90;;;;;;5055363;28;20025;-62
2022/09/30 11:55:34;;;;;;;7.45;2.78;;;29.00;99.90;;;;;;5060024;28;20024;-62
2022/09/30 11:58:13;;;;;;;8.48;3.05;;;28.80;99.90;;;;;;5055328;28;20458;-62
2022/09/30 12:00:48;;;;;;;10.43;2.97;;;28.60;99.90;;;;;;5051255;28;20029;-64
2022/09/30 12:03:34;;;;;;;5.93;3.08;;;28.90;99.90;;;;;;5058983;28;20025;-64
2022/09/30 12:06:09;;;;;;;10.35;3.13;;;29.30;99.90;;;;;;5053295;28;20024;-62
2022/09/30 12:08:49;;;;;;;9.45;2.92;;;28.90;99.90;;;;;;5054927;28;20029;-64
2022/09/30 12:11:43;;;;;;;7.60;2.80;;;28.00;99.90;;;;;;5058697;28;20107;-64
2022/09/30 12:14:29;;;;;;;9.60;2.75;;;28.70;99.90;;;;;;5052851;28;20040;-62
2022/09/30 12:16:59;;;;;;;9.45;3.03;;;28.80;99.90;;;;;;5058050;28;20028;-62
2022/09/30 12:19:50;;;;;;;11.70;2.90;;;28.10;99.90;;;;;;5057450;28;20024;-64
2022/09/30 12:22:28;;;;;;;6.28;2.72;;;28.70;99.90;;;;;;5058410;28;20027;-63
2022/09/30 12:24:55;;;;;;;6.20;2.30;;;;;;;;;;5057285;28;20025;-62
2022/09/30 12:27:40;;;;;;;7.15;2.33;;;28.50;99.90;;;;;;5059726;28;20017;-63
2022/09/30 12:30:28;;;;;;;7.35;2.60;;;28.50;99.90;;;;;;5059443;28;20082;-64
2022/09/30 12:33:19;;;;;;;6.35;2.47;;;28.40;99.90;;;;;;5060388;28;20037;-62
2022/09/30 12:36:03;;;;;;;12.25;2.78;;;28.40;99.90;;;;;;5059095;28;20440;-65
2022/09/30 12:38:36;;;;;;;9.40;2.47;;;28.30;99.90;;;;;;5057148;28;20029;-64
2022/09/30 12:41:16;;;;;;;7.88;2.55;;;28.40;99.90;;;;;;5055100;28;20075;-62
2022/09/30 12:44:26;;;;;;;8.93;2.28;;;28.20;99.90;;;;;;5053955;28;20504;-61
2022/09/30 12:47:18;;;;;;;7.32;2.20;;;27.80;99.90;;;;;;5053852;28;20037;-62
2022/09/30 12:49:46;;;;;;;7.82;2.38;;;27.70;99.90;;;;;;5055384;28;21694;-62
2022/09/30 12:52:19;;;;;;;7.55;2.38;;;28.80;99.90;;;;;;5055618;28;20032;-62
2022/09/30 12:54:58;;;;;;;5.22;2.60;;;28.50;99.90;;;;;;5050294;28;20021;-63
2022/09/30 12:57:29;;;;;;;10.98;2.53;;;28.30;99.90;;;;;;5054500;28;20070;-62
2022/09/30 13:00:17;;;;;;;9.05;1.83;;;28.50;99.90;;;;;;5055642;28;20108;-62
2022/09/30 13:02:47;;;;;;;9.35;2.30;;;28.60;99.90;;;;;;5062304;28;20083;-63
2022/09/30 13:05:38;;;;;;;9.50;2.35;;;28.20;99.90;;;;;;5057185;28;20532;-62
2022/09/30 13:08:04;;;;;;;9.25;2.10;;;28.30;99.90;;;;;;5057772;28;20033;-64
2022/09/30 13:10:52;;;;;;;12.95;2.45;;;28.00;99.90;;;;;;5055927;28;20031;-64
2022/09/30 13:13:29;;;;;;;9.80;2.40;;;28.20;99.90;;;;;;5058015;28;20021;-64
2022/09/30 13:16:02;;;;;;;10.43;2.20;;;28.20;99.90;;;;;;5058826;28;20026;-64
2022/09/30 13:18:30;;;;;;;11.85;2.10;;;28.00;99.90;;;;;;5056884;28;20021;-63
2022/09/30 13:21:09;;;;;;;8.43;2.40;;;28.10;99.90;;;;;;5058849;28;20402;-61